sensor_id;sensor_type;location;lat;lon;timestamp;pressure;altitude;pressure_sealevel;temperature;humidity
33913;BME280;20200;52.084;5.224;2022-07-30T00:00:43;101752.0;;;17.66;83.42
33913;BME280;20200;52.084;5.224;2022-07-30T00:02:29;101752.0;;;17.84;82.77
33913;BME280;20200;52.084;5.224;2022-07-30T00:04:17;101750.0;;;17.75;82.77
33913;BME280;20200;52.084;5.224;2022-07-30T00:06:04;101751.0;;;17.73;82.92
33913;BME280;20200;52.084;5.224;2022-07-30T00:07:51;101748.0;;;17.62;83.34
33913;BME280;20200;52.084;5.224;2022-07-30T00:11:25;101748.0;;;17.61;83.79
33913;BME280;20200;52.084;5.224;2022-07-30T00:13:12;101747.0;;;17.55;84.01
33913;BME280;20200;52.084;5.224;2022-07-30T00:14:58;101744.0;;;17.61;83.78
33913;BME280;20200;52.084;5.224;2022-07-30T00:16:45;101740.0;;;17.7;83.15
33913;BME280;20200;52.084;5.224;2022-07-30T00:18:31;101735.0;;;17.53;83.22
33913;BME280;20200;52.084;5.224;2022-07-30T00:20:18;101740.0;;;17.55;83.66
33913;BME280;20200;52.084;5.224;2022-07-30T00:23:51;101739.0;;;17.52;83.77
33913;BME280;20200;52.084;5.224;2022-07-30T00:25:37;101742.0;;;17.53;83.79
33913;BME280;20200;52.084;5.224;2022-07-30T00:27:25;101738.0;;;17.56;83.53
33913;BME280;20200;52.084;5.224;2022-07-30T00:29:11;101736.0;;;17.66;83.25
33913;BME280;20200;52.084;5.224;2022-07-30T00:30:58;101736.0;;;17.77;82.44
33913;BME280;20200;52.084;5.224;2022-07-30T00:32:45;101728.0;;;17.71;82.56
33913;BME280;20200;52.084;5.224;2022-07-30T00:36:17;101725.0;;;17.72;82.33
33913;BME280;20200;52.084;5.224;2022-07-30T00:38:03;101725.0;;;17.75;81.99
33913;BME280;20200;52.084;5.224;2022-07-30T00:39:51;101723.0;;;17.77;81.91
33913;BME280;20200;52.084;5.224;2022-07-30T00:41:51;101721.0;;;17.7;82.08
33913;BME280;20200;52.084;5.224;2022-07-30T00:43:39;101724.0;;;17.7;82.16
33913;BME280;20200;52.084;5.224;2022-07-30T00:45:26;101719.0;;;17.64;82.5
33913;BME280;20200;52.084;5.224;2022-07-30T00:49:00;101715.0;;;17.68;82.49
33913;BME280;20200;52.084;5.224;2022-07-30T00:50:47;101721.0;;;17.61;82.43
33913;BME280;20200;52.084;5.224;2022-07-30T00:52:33;101717.0;;;17.64;82.19
33913;BME280;20200;52.084;5.224;2022-07-30T00:54:20;101722.0;;;17.62;82.19
33913;BME280;20200;52.084;5.224;2022-07-30T00:56:07;101724.0;;;17.61;82.4
33913;BME280;20200;52.084;5.224;2022-07-30T00:57:53;101723.0;;;17.61;82.34
33913;BME280;20200;52.084;5.224;2022-07-30T01:01:26;101726.0;;;17.54;82.68
33913;BME280;20200;52.084;5.224;2022-07-30T01:03:12;101730.0;;;17.56;82.22
33913;BME280;20200;52.084;5.224;2022-07-30T01:04:58;101730.0;;;17.61;82.03
33913;BME280;20200;52.084;5.224;2022-07-30T01:06:44;101735.0;;;17.66;82.05
33913;BME280;20200;52.084;5.224;2022-07-30T01:08:30;101732.0;;;17.52;82.62
33913;BME280;20200;52.084;5.224;2022-07-30T01:12:06;101731.0;;;17.55;82.57
33913;BME280;20200;52.084;5.224;2022-07-30T01:13:55;101730.0;;;17.45;82.45
33913;BME280;20200;52.084;5.224;2022-07-30T01:15:41;101730.0;;;17.18;83.62
33913;BME280;20200;52.084;5.224;2022-07-30T01:17:28;101732.0;;;17.27;82.98
33913;BME280;20200;52.084;5.224;2022-07-30T01:20:22;101726.0;;;17.31;82.7
33913;BME280;20200;52.084;5.224;2022-07-30T01:22:16;101728.0;;;17.37;82.94
33913;BME280;20200;52.084;5.224;2022-07-30T01:24:28;101730.0;;;17.39;82.91
33913;BME280;20200;52.084;5.224;2022-07-30T01:26:17;101730.0;;;17.31;82.71
33913;BME280;20200;52.084;5.224;2022-07-30T01:28:07;101723.0;;;17.34;82.65
33913;BME280;20200;52.084;5.224;2022-07-30T01:29:55;101725.0;;;17.34;83.05
33913;BME280;20200;52.084;5.224;2022-07-30T01:31:45;101725.0;;;17.36;83.0
33913;BME280;20200;52.084;5.224;2022-07-30T01:33:36;101724.0;;;17.34;82.65
33913;BME280;20200;52.084;5.224;2022-07-30T01:37:16;101723.0;;;17.31;83.13
33913;BME280;20200;52.084;5.224;2022-07-30T01:39:04;101724.0;;;17.3;82.99
33913;BME280;20200;52.084;5.224;2022-07-30T01:40:53;101726.0;;;17.3;83.14
33913;BME280;20200;52.084;5.224;2022-07-30T01:42:41;101731.0;;;17.21;83.39
33913;BME280;20200;52.084;5.224;2022-07-30T01:44:31;101730.0;;;17.11;83.1
33913;BME280;20200;52.084;5.224;2022-07-30T01:46:18;101732.0;;;17.07;83.39
33913;BME280;20200;52.084;5.224;2022-07-30T01:48:06;101726.0;;;16.98;83.91
33913;BME280;20200;52.084;5.224;2022-07-30T01:51:44;101727.0;;;17.09;83.46
33913;BME280;20200;52.084;5.224;2022-07-30T01:53:36;101727.0;;;17.05;83.5
33913;BME280;20200;52.084;5.224;2022-07-30T01:55:28;101723.0;;;16.95;83.81
33913;BME280;20200;52.084;5.224;2022-07-30T01:57:26;101725.0;;;16.96;83.7
33913;BME280;20200;52.084;5.224;2022-07-30T01:59:15;101722.0;;;16.9;83.47
33913;BME280;20200;52.084;5.224;2022-07-30T02:01:04;101725.0;;;16.95;83.42
33913;BME280;20200;52.084;5.224;2022-07-30T02:02:51;101727.0;;;16.93;83.62
33913;BME280;20200;52.084;5.224;2022-07-30T02:06:28;101726.0;;;16.93;83.97
33913;BME280;20200;52.084;5.224;2022-07-30T02:08:25;101728.0;;;16.91;83.86
33913;BME280;20200;52.084;5.224;2022-07-30T02:10:25;101724.0;;;16.95;83.87
33913;BME280;20200;52.084;5.224;2022-07-30T02:12:29;101725.0;;;16.98;83.65
33913;BME280;20200;52.084;5.224;2022-07-30T02:14:21;101731.0;;;16.81;84.33
33913;BME280;20200;52.084;5.224;2022-07-30T02:16:17;101730.0;;;16.68;84.68
33913;BME280;20200;52.084;5.224;2022-07-30T02:18:10;101731.0;;;16.64;84.6
33913;BME280;20200;52.084;5.224;2022-07-30T02:19:59;101730.0;;;16.72;84.62
33913;BME280;20200;52.084;5.224;2022-07-30T02:21:47;101727.0;;;16.79;84.52
33913;BME280;20200;52.084;5.224;2022-07-30T02:23:46;101733.0;;;16.78;84.72
33913;BME280;20200;52.084;5.224;2022-07-30T02:27:30;101730.0;;;16.84;84.15
33913;BME280;20200;52.084;5.224;2022-07-30T02:29:19;101726.0;;;16.82;84.06
33913;BME280;20200;52.084;5.224;2022-07-30T02:31:08;101730.0;;;16.84;83.94
33913;BME280;20200;52.084;5.224;2022-07-30T02:33:06;101727.0;;;16.86;83.58
33913;BME280;20200;52.084;5.224;2022-07-30T02:34:56;101726.0;;;16.86;83.73
33913;BME280;20200;52.084;5.224;2022-07-30T02:36:46;101731.0;;;16.88;83.48
33913;BME280;20200;52.084;5.224;2022-07-30T02:38:34;101730.0;;;16.7;83.77
33913;BME280;20200;52.084;5.224;2022-07-30T02:40:22;101731.0;;;16.72;83.96
33913;BME280;20200;52.084;5.224;2022-07-30T02:44:00;101731.0;;;16.65;84.37
33913;BME280;20200;52.084;5.224;2022-07-30T02:45:48;101731.0;;;16.59;84.29
33913;BME280;20200;52.084;5.224;2022-07-30T02:47:37;101731.0;;;16.55;84.4
33913;BME280;20200;52.084;5.224;2022-07-30T02:49:26;101727.0;;;16.52;84.69
33913;BME280;20200;52.084;5.224;2022-07-30T02:51:15;101731.0;;;16.53;84.58
33913;BME280;20200;52.084;5.224;2022-07-30T02:53:04;101734.0;;;16.45;84.94
33913;BME280;20200;52.084;5.224;2022-07-30T02:56:43;101731.0;;;16.43;84.97
33913;BME280;20200;52.084;5.224;2022-07-30T02:58:31;101731.0;;;16.43;85.14
33913;BME280;20200;52.084;5.224;2022-07-30T03:00:23;101731.0;;;16.36;85.25
33913;BME280;20200;52.084;5.224;2022-07-30T03:02:11;101736.0;;;16.37;84.93
33913;BME280;20200;52.084;5.224;2022-07-30T03:03:59;101737.0;;;16.39;84.88
33913;BME280;20200;52.084;5.224;2022-07-30T03:05:49;101737.0;;;16.36;85.2
33913;BME280;20200;52.084;5.224;2022-07-30T03:07:36;101735.0;;;16.43;84.92
33913;BME280;20200;52.084;5.224;2022-07-30T03:11:12;101737.0;;;16.36;85.2
33913;BME280;20200;52.084;5.224;2022-07-30T03:13:00;101738.0;;;16.18;85.54
33913;BME280;20200;52.084;5.224;2022-07-30T03:14:49;101740.0;;;16.25;85.41
33913;BME280;20200;52.084;5.224;2022-07-30T03:16:37;101743.0;;;16.25;85.31
33913;BME280;20200;52.084;5.224;2022-07-30T03:18:27;101744.0;;;16.18;85.54
33913;BME280;20200;52.084;5.224;2022-07-30T03:20:19;101740.0;;;16.25;85.23
33913;BME280;20200;52.084;5.224;2022-07-30T03:22:11;101738.0;;;16.36;85.41
33913;BME280;20200;52.084;5.224;2022-07-30T03:25:55;101739.0;;;16.25;85.39
33913;BME280;20200;52.084;5.224;2022-07-30T03:27:42;101735.0;;;16.11;85.75
33913;BME280;20200;52.084;5.224;2022-07-30T03:29:31;101734.0;;;16.09;86.05
33913;BME280;20200;52.084;5.224;2022-07-30T03:31:18;101735.0;;;16.15;85.85
33913;BME280;20200;52.084;5.224;2022-07-30T03:33:05;101730.0;;;15.98;85.97
33913;BME280;20200;52.084;5.224;2022-07-30T03:34:53;101730.0;;;15.79;86.78
33913;BME280;20200;52.084;5.224;2022-07-30T03:38:29;101733.0;;;15.69;87.06
33913;BME280;20200;52.084;5.224;2022-07-30T03:40:16;101738.0;;;15.92;86.13
33913;BME280;20200;52.084;5.224;2022-07-30T03:42:05;101733.0;;;15.98;85.75
33913;BME280;20200;52.084;5.224;2022-07-30T03:43:52;101735.0;;;15.98;85.73
33913;BME280;20200;52.084;5.224;2022-07-30T03:45:43;101737.0;;;15.93;86.06
33913;BME280;20200;52.084;5.224;2022-07-30T03:47:32;101739.0;;;15.99;85.83
33913;BME280;20200;52.084;5.224;2022-07-30T03:49:22;101739.0;;;15.92;85.91
33913;BME280;20200;52.084;5.224;2022-07-30T03:52:57;101742.0;;;15.84;85.74
33913;BME280;20200;52.084;5.224;2022-07-30T03:54:45;101742.0;;;15.89;85.65
33913;BME280;20200;52.084;5.224;2022-07-30T03:56:32;101742.0;;;15.89;85.84
33913;BME280;20200;52.084;5.224;2022-07-30T03:58:19;101749.0;;;15.91;86.43
33913;BME280;20200;52.084;5.224;2022-07-30T04:00:11;101745.0;;;15.87;85.95
33913;BME280;20200;52.084;5.224;2022-07-30T04:02:01;101744.0;;;15.91;85.91
33913;BME280;20200;52.084;5.224;2022-07-30T04:05:35;101751.0;;;15.97;86.08
33913;BME280;20200;52.084;5.224;2022-07-30T04:07:21;101747.0;;;15.95;86.1
33913;BME280;20200;52.084;5.224;2022-07-30T04:09:10;101751.0;;;15.97;86.06
33913;BME280;20200;52.084;5.224;2022-07-30T04:10:57;101752.0;;;15.99;85.79
33913;BME280;20200;52.084;5.224;2022-07-30T04:12:44;101752.0;;;15.9;85.94
33913;BME280;20200;52.084;5.224;2022-07-30T04:14:38;101755.0;;;15.91;85.95
33913;BME280;20200;52.084;5.224;2022-07-30T04:18:23;101764.0;;;15.77;86.12
33913;BME280;20200;52.084;5.224;2022-07-30T04:20:14;101760.0;;;15.74;86.37
33913;BME280;20200;52.084;5.224;2022-07-30T04:22:06;101756.0;;;15.83;85.87
33913;BME280;20200;52.084;5.224;2022-07-30T04:23:56;101759.0;;;15.92;85.75
33913;BME280;20200;52.084;5.224;2022-07-30T04:25:45;101762.0;;;15.82;86.98
33913;BME280;20200;52.084;5.224;2022-07-30T04:27:33;101763.0;;;15.84;86.92
33913;BME280;20200;52.084;5.224;2022-07-30T04:29:20;101763.0;;;15.75;86.59
33913;BME280;20200;52.084;5.224;2022-07-30T04:32:55;101767.0;;;15.69;87.02
33913;BME280;20200;52.084;5.224;2022-07-30T04:34:46;101768.0;;;15.78;86.9
33913;BME280;20200;52.084;5.224;2022-07-30T04:36:33;101768.0;;;15.87;86.72
33913;BME280;20200;52.084;5.224;2022-07-30T04:38:20;101773.0;;;15.87;86.54
33913;BME280;20200;52.084;5.224;2022-07-30T04:40:08;101773.0;;;15.81;86.97
33913;BME280;20200;52.084;5.224;2022-07-30T04:41:54;101775.0;;;15.8;87.2
33913;BME280;20200;52.084;5.224;2022-07-30T04:45:27;101777.0;;;15.9;86.51
33913;BME280;20200;52.084;5.224;2022-07-30T04:47:13;101775.0;;;15.84;87.52
33913;BME280;20200;52.084;5.224;2022-07-30T04:49:00;101774.0;;;15.93;87.22
33913;BME280;20200;52.084;5.224;2022-07-30T04:50:48;101770.0;;;15.82;88.17
33913;BME280;20200;52.084;5.224;2022-07-30T04:52:39;101773.0;;;15.93;87.72
33913;BME280;20200;52.084;5.224;2022-07-30T04:54:37;101770.0;;;15.84;88.86
33913;BME280;20200;52.084;5.224;2022-07-30T04:56:25;101770.0;;;16.02;88.49
33913;BME280;20200;52.084;5.224;2022-07-30T05:00:06;101771.0;;;15.97;88.74
33913;BME280;20200;52.084;5.224;2022-07-30T05:01:55;101772.0;;;15.98;88.69
33913;BME280;20200;52.084;5.224;2022-07-30T05:03:43;101770.0;;;15.99;88.79
33913;BME280;20200;52.084;5.224;2022-07-30T05:05:32;101771.0;;;16.12;88.78
33913;BME280;20200;52.084;5.224;2022-07-30T05:07:21;101772.0;;;15.98;89.74
33913;BME280;20200;52.084;5.224;2022-07-30T05:09:07;101775.0;;;16.16;89.4
33913;BME280;20200;52.084;5.224;2022-07-30T05:12:42;101776.0;;;16.18;89.15
33913;BME280;20200;52.084;5.224;2022-07-30T05:14:28;101782.0;;;16.2;89.38
33913;BME280;20200;52.084;5.224;2022-07-30T05:16:15;101782.0;;;16.28;89.15
33913;BME280;20200;52.084;5.224;2022-07-30T05:18:01;101784.0;;;16.23;89.29
33913;BME280;20200;52.084;5.224;2022-07-30T05:19:47;101789.0;;;16.27;89.27
33913;BME280;20200;52.084;5.224;2022-07-30T05:21:34;101789.0;;;16.34;89.15
33913;BME280;20200;52.084;5.224;2022-07-30T05:25:08;101787.0;;;16.3;88.98
33913;BME280;20200;52.084;5.224;2022-07-30T05:26:54;101791.0;;;16.32;89.06
33913;BME280;20200;52.084;5.224;2022-07-30T05:28:41;101787.0;;;16.34;89.03
33913;BME280;20200;52.084;5.224;2022-07-30T05:30:27;101788.0;;;16.36;89.02
33913;BME280;20200;52.084;5.224;2022-07-30T05:32:13;101788.0;;;16.36;89.13
33913;BME280;20200;52.084;5.224;2022-07-30T05:34:00;101792.0;;;16.45;88.93
33913;BME280;20200;52.084;5.224;2022-07-30T05:37:34;101793.0;;;16.4;89.06
33913;BME280;20200;52.084;5.224;2022-07-30T05:39:20;101790.0;;;16.53;88.61
33913;BME280;20200;52.084;5.224;2022-07-30T05:41:07;101796.0;;;16.55;88.44
33913;BME280;20200;52.084;5.224;2022-07-30T05:42:53;101785.0;;;16.65;88.31
33913;BME280;20200;52.084;5.224;2022-07-30T05:44:39;101793.0;;;16.82;87.62
33913;BME280;20200;52.084;5.224;2022-07-30T05:48:13;101797.0;;;16.79;87.68
33913;BME280;20200;52.084;5.224;2022-07-30T05:49:59;101803.0;;;16.82;87.78
33913;BME280;20200;52.084;5.224;2022-07-30T05:51:45;101805.0;;;16.8;87.59
33913;BME280;20200;52.084;5.224;2022-07-30T05:53:31;101802.0;;;16.95;87.42
33913;BME280;20200;52.084;5.224;2022-07-30T05:55:18;101807.0;;;17.0;86.79
33913;BME280;20200;52.084;5.224;2022-07-30T05:57:05;101808.0;;;17.05;86.57
33913;BME280;20200;52.084;5.224;2022-07-30T06:00:37;101810.0;;;17.12;86.36
33913;BME280;20200;52.084;5.224;2022-07-30T06:02:24;101811.0;;;17.18;85.98
33913;BME280;20200;52.084;5.224;2022-07-30T06:04:10;101813.0;;;17.2;85.83
33913;BME280;20200;52.084;5.224;2022-07-30T06:05:57;101815.0;;;17.14;85.97
33913;BME280;20200;52.084;5.224;2022-07-30T06:07:43;101816.0;;;17.31;85.29
33913;BME280;20200;52.084;5.224;2022-07-30T06:11:16;101815.0;;;17.34;84.48
33913;BME280;20200;52.084;5.224;2022-07-30T06:13:02;101815.0;;;17.27;85.17
33913;BME280;20200;52.084;5.224;2022-07-30T06:14:49;101819.0;;;17.27;84.98
33913;BME280;20200;52.084;5.224;2022-07-30T06:16:35;101817.0;;;17.37;84.24
33913;BME280;20200;52.084;5.224;2022-07-30T06:18:22;101811.0;;;17.43;83.95
33913;BME280;20200;52.084;5.224;2022-07-30T06:20:09;101816.0;;;17.47;83.72
33913;BME280;20200;52.084;5.224;2022-07-30T06:23:42;101821.0;;;17.5;83.47
33913;BME280;20200;52.084;5.224;2022-07-30T06:25:29;101821.0;;;17.52;82.42
33913;BME280;20200;52.084;5.224;2022-07-30T06:27:17;101818.0;;;17.47;82.34
33913;BME280;20200;52.084;5.224;2022-07-30T06:29:03;101825.0;;;17.61;82.37
33913;BME280;20200;52.084;5.224;2022-07-30T06:30:50;101817.0;;;17.77;81.72
33913;BME280;20200;52.084;5.224;2022-07-30T06:32:38;101822.0;;;17.57;82.61
33913;BME280;20200;52.084;5.224;2022-07-30T06:36:12;101822.0;;;17.54;82.52
33913;BME280;20200;52.084;5.224;2022-07-30T06:37:58;101823.0;;;17.62;80.88
33913;BME280;20200;52.084;5.224;2022-07-30T06:39:45;101828.0;;;17.54;81.22
33913;BME280;20200;52.084;5.224;2022-07-30T06:41:31;101823.0;;;17.62;80.64
33913;BME280;20200;52.084;5.224;2022-07-30T06:43:18;101825.0;;;17.59;80.45
33913;BME280;20200;52.084;5.224;2022-07-30T06:45:07;101827.0;;;17.68;80.17
33913;BME280;20200;52.084;5.224;2022-07-30T06:48:41;101822.0;;;17.78;80.52
33913;BME280;20200;52.084;5.224;2022-07-30T06:50:27;101821.0;;;17.86;79.41
33913;BME280;20200;52.084;5.224;2022-07-30T06:52:14;101825.0;;;17.8;79.16
33913;BME280;20200;52.084;5.224;2022-07-30T06:54:00;101819.0;;;17.96;78.47
33913;BME280;20200;52.084;5.224;2022-07-30T06:55:47;101821.0;;;18.04;77.81
33913;BME280;20200;52.084;5.224;2022-07-30T06:59:20;101820.0;;;18.03;77.61
33913;BME280;20200;52.084;5.224;2022-07-30T07:01:07;101824.0;;;17.95;77.33
33913;BME280;20200;52.084;5.224;2022-07-30T07:02:54;101821.0;;;18.04;76.58
33913;BME280;20200;52.084;5.224;2022-07-30T07:04:41;101824.0;;;18.2;75.77
33913;BME280;20200;52.084;5.224;2022-07-30T07:06:27;101824.0;;;18.09;75.81
33913;BME280;20200;52.084;5.224;2022-07-30T07:08:14;101821.0;;;18.3;75.27
33913;BME280;20200;52.084;5.224;2022-07-30T07:11:46;101823.0;;;18.27;74.61
33913;BME280;20200;52.084;5.224;2022-07-30T07:13:33;101830.0;;;18.2;73.86
33913;BME280;20200;52.084;5.224;2022-07-30T07:15:20;101830.0;;;18.39;73.2
33913;BME280;20200;52.084;5.224;2022-07-30T07:17:07;101832.0;;;18.45;72.83
33913;BME280;20200;52.084;5.224;2022-07-30T07:18:53;101832.0;;;18.34;72.92
33913;BME280;20200;52.084;5.224;2022-07-30T07:20:42;101836.0;;;18.27;72.16
33913;BME280;20200;52.084;5.224;2022-07-30T07:24:14;101832.0;;;18.5;71.67
33913;BME280;20200;52.084;5.224;2022-07-30T07:26:01;101835.0;;;18.43;71.44
33913;BME280;20200;52.084;5.224;2022-07-30T07:27:47;101834.0;;;18.5;71.05
33913;BME280;20200;52.084;5.224;2022-07-30T07:29:33;101827.0;;;18.56;70.91
33913;BME280;20200;52.084;5.224;2022-07-30T07:31:19;101836.0;;;18.55;70.75
33913;BME280;20200;52.084;5.224;2022-07-30T07:34:51;101836.0;;;18.57;70.16
33913;BME280;20200;52.084;5.224;2022-07-30T07:36:38;101838.0;;;18.48;69.75
33913;BME280;20200;52.084;5.224;2022-07-30T07:38:24;101836.0;;;18.56;70.33
33913;BME280;20200;52.084;5.224;2022-07-30T07:40:12;101836.0;;;18.59;69.28
33913;BME280;20200;52.084;5.224;2022-07-30T07:41:58;101844.0;;;18.68;69.06
33913;BME280;20200;52.084;5.224;2022-07-30T07:43:44;101850.0;;;18.73;69.14
33913;BME280;20200;52.084;5.224;2022-07-30T07:47:16;101849.0;;;18.86;68.27
33913;BME280;20200;52.084;5.224;2022-07-30T07:49:03;101852.0;;;18.87;67.85
33913;BME280;20200;52.084;5.224;2022-07-30T07:50:50;101850.0;;;19.03;67.6
33913;BME280;20200;52.084;5.224;2022-07-30T07:52:36;101848.0;;;19.16;67.35
33913;BME280;20200;52.084;5.224;2022-07-30T07:54:22;101847.0;;;19.32;66.39
33913;BME280;20200;52.084;5.224;2022-07-30T07:57:55;101847.0;;;19.28;66.61
33913;BME280;20200;52.084;5.224;2022-07-30T07:59:41;101853.0;;;19.38;65.83
33913;BME280;20200;52.084;5.224;2022-07-30T08:01:28;101848.0;;;19.47;65.27
33913;BME280;20200;52.084;5.224;2022-07-30T08:03:15;101839.0;;;19.5;64.48
33913;BME280;20200;52.084;5.224;2022-07-30T08:05:01;101838.0;;;19.59;64.6
33913;BME280;20200;52.084;5.224;2022-07-30T08:06:48;101843.0;;;19.52;63.55
33913;BME280;20200;52.084;5.224;2022-07-30T08:10:22;101841.0;;;19.72;63.38
33913;BME280;20200;52.084;5.224;2022-07-30T08:12:10;101833.0;;;19.81;63.8
33913;BME280;20200;52.084;5.224;2022-07-30T08:13:57;101834.0;;;20.05;63.36
33913;BME280;20200;52.084;5.224;2022-07-30T08:15:44;101833.0;;;20.02;62.48
33913;BME280;20200;52.084;5.224;2022-07-30T08:17:31;101831.0;;;20.12;61.93
33913;BME280;20200;52.084;5.224;2022-07-30T08:19:18;101838.0;;;20.16;62.12
33913;BME280;20200;52.084;5.224;2022-07-30T08:22:51;101843.0;;;20.0;60.77
33913;BME280;20200;52.084;5.224;2022-07-30T08:24:38;101844.0;;;19.87;61.7
33913;BME280;20200;52.084;5.224;2022-07-30T08:29:57;101839.0;;;20.28;60.45
33913;BME280;20200;52.084;5.224;2022-07-30T08:38:52;101830.0;;;20.46;58.15
33913;BME280;20200;52.084;5.224;2022-07-30T08:40:38;101825.0;;;20.51;58.26
33913;BME280;20200;52.084;5.224;2022-07-30T08:55:09;101836.0;;;20.82;56.56
33913;BME280;20200;52.084;5.224;2022-07-30T09:05:50;101831.0;;;21.47;54.93
33913;BME280;20200;52.084;5.224;2022-07-30T09:29:33;101846.0;;;22.36;51.83
33913;BME280;20200;52.084;5.224;2022-07-30T09:45:52;101847.0;;;22.93;50.34
33913;BME280;20200;52.084;5.224;2022-07-30T10:00:26;101824.0;;;23.07;49.88
33913;BME280;20200;52.084;5.224;2022-07-30T10:02:13;101824.0;;;23.2;49.34
33913;BME280;20200;52.084;5.224;2022-07-30T10:20:14;101814.0;;;23.64;48.14
33913;BME280;20200;52.084;5.224;2022-07-30T10:22:01;101811.0;;;23.71;48.18
33913;BME280;20200;52.084;5.224;2022-07-30T10:25:37;101818.0;;;23.87;46.75
33913;BME280;20200;52.084;5.224;2022-07-30T10:36:25;101816.0;;;24.06;46.11
33913;BME280;20200;52.084;5.224;2022-07-30T10:46:32;101807.0;;;24.22;46.04
33913;BME280;20200;52.084;5.224;2022-07-30T10:52:02;101815.0;;;24.58;45.14
33913;BME280;20200;52.084;5.224;2022-07-30T11:07:27;101817.0;;;25.33;41.48
33913;BME280;20200;52.084;5.224;2022-07-30T11:09:34;101817.0;;;25.3;41.32
33913;BME280;20200;52.084;5.224;2022-07-30T11:18:17;101816.0;;;24.82;42.86
33913;BME280;20200;52.084;5.224;2022-07-30T11:32:23;101800.0;;;25.9;39.4
33913;BME280;20200;52.084;5.224;2022-07-30T11:36:17;101806.0;;;25.79;39.81
33913;BME280;20200;52.084;5.224;2022-07-30T11:44:26;101803.0;;;25.73;39.5
33913;BME280;20200;52.084;5.224;2022-07-30T11:49:56;101801.0;;;25.63;39.47
33913;BME280;20200;52.084;5.224;2022-07-30T11:53:33;101802.0;;;25.52;39.74
33913;BME280;20200;52.084;5.224;2022-07-30T12:04:19;101796.0;;;25.75;39.76
33913;BME280;20200;52.084;5.224;2022-07-30T12:06:08;101799.0;;;25.72;39.62
33913;BME280;20200;52.084;5.224;2022-07-30T12:09:44;101801.0;;;26.04;38.89
33913;BME280;20200;52.084;5.224;2022-07-30T12:16:52;101799.0;;;26.25;38.1
33913;BME280;20200;52.084;5.224;2022-07-30T12:22:13;101805.0;;;26.27;38.99
33913;BME280;20200;52.084;5.224;2022-07-30T12:25:48;101805.0;;;26.1;38.49
33913;BME280;20200;52.084;5.224;2022-07-30T12:27:37;101809.0;;;25.77;39.24
33913;BME280;20200;52.084;5.224;2022-07-30T12:29:23;101807.0;;;26.03;39.12
33913;BME280;20200;52.084;5.224;2022-07-30T12:31:14;101802.0;;;26.01;38.92
33913;BME280;20200;52.084;5.224;2022-07-30T12:33:01;101805.0;;;26.08;39.28
33913;BME280;20200;52.084;5.224;2022-07-30T12:34:52;101800.0;;;25.69;39.9
33913;BME280;20200;52.084;5.224;2022-07-30T12:36:40;101805.0;;;25.63;39.96
33913;BME280;20200;52.084;5.224;2022-07-30T12:40:15;101800.0;;;26.01;39.21
33913;BME280;20200;52.084;5.224;2022-07-30T12:42:02;101807.0;;;25.9;39.12
33913;BME280;20200;52.084;5.224;2022-07-30T12:43:51;101797.0;;;26.15;38.71
33913;BME280;20200;52.084;5.224;2022-07-30T12:45:40;101798.0;;;26.19;38.03
33913;BME280;20200;52.084;5.224;2022-07-30T12:47:29;101797.0;;;26.58;38.06
33913;BME280;20200;52.084;5.224;2022-07-30T12:49:16;101795.0;;;26.39;38.74
33913;BME280;20200;52.084;5.224;2022-07-30T12:52:52;101799.0;;;26.03;38.46
33913;BME280;20200;52.084;5.224;2022-07-30T12:54:39;101797.0;;;26.13;37.93
33913;BME280;20200;52.084;5.224;2022-07-30T12:56:27;101794.0;;;26.26;38.0
33913;BME280;20200;52.084;5.224;2022-07-30T12:58:15;101788.0;;;26.38;37.92
33913;BME280;20200;52.084;5.224;2022-07-30T13:00:04;101790.0;;;26.47;38.4
33913;BME280;20200;52.084;5.224;2022-07-30T13:01:53;101788.0;;;26.41;38.22
33913;BME280;20200;52.084;5.224;2022-07-30T13:05:44;101787.0;;;26.43;38.04
33913;BME280;20200;52.084;5.224;2022-07-30T13:07:32;101787.0;;;26.64;37.46
33913;BME280;20200;52.084;5.224;2022-07-30T13:09:19;101786.0;;;26.78;37.17
33913;BME280;20200;52.084;5.224;2022-07-30T13:11:07;101778.0;;;26.82;36.79
33913;BME280;20200;52.084;5.224;2022-07-30T13:12:53;101780.0;;;26.98;36.53
33913;BME280;20200;52.084;5.224;2022-07-30T13:14:39;101774.0;;;27.11;36.36
33913;BME280;20200;52.084;5.224;2022-07-30T13:16:29;101780.0;;;26.67;36.71
33913;BME280;20200;52.084;5.224;2022-07-30T13:20:03;101776.0;;;26.67;37.4
33913;BME280;20200;52.084;5.224;2022-07-30T13:21:51;101780.0;;;26.46;38.43
33913;BME280;20200;52.084;5.224;2022-07-30T13:23:39;101774.0;;;26.78;37.46
33913;BME280;20200;52.084;5.224;2022-07-30T13:25:27;101770.0;;;27.02;37.14
33913;BME280;20200;52.084;5.224;2022-07-30T13:27:15;101772.0;;;26.67;37.51
33913;BME280;20200;52.084;5.224;2022-07-30T13:29:02;101770.0;;;26.84;37.4
33913;BME280;20200;52.084;5.224;2022-07-30T13:32:36;101771.0;;;26.85;37.61
33913;BME280;20200;52.084;5.224;2022-07-30T13:34:23;101775.0;;;26.75;37.42
33913;BME280;20200;52.084;5.224;2022-07-30T13:36:10;101773.0;;;27.3;37.11
33913;BME280;20200;52.084;5.224;2022-07-30T13:37:57;101770.0;;;27.17;36.82
33913;BME280;20200;52.084;5.224;2022-07-30T13:39:43;101774.0;;;27.28;35.89
33913;BME280;20200;52.084;5.224;2022-07-30T13:41:30;101772.0;;;27.33;35.35
33913;BME280;20200;52.084;5.224;2022-07-30T13:45:07;101770.0;;;27.48;35.64
33913;BME280;20200;52.084;5.224;2022-07-30T13:46:54;101769.0;;;27.81;35.03
33913;BME280;20200;52.084;5.224;2022-07-30T13:48:41;101762.0;;;28.3;34.21
33913;BME280;20200;52.084;5.224;2022-07-30T13:50:28;101762.0;;;28.49;33.78
33913;BME280;20200;52.084;5.224;2022-07-30T13:52:15;101762.0;;;28.11;33.93
33913;BME280;20200;52.084;5.224;2022-07-30T13:54:01;101757.0;;;28.0;34.37
33913;BME280;20200;52.084;5.224;2022-07-30T13:57:35;101758.0;;;27.38;35.01
33913;BME280;20200;52.084;5.224;2022-07-30T13:59:22;101755.0;;;27.63;34.72
33913;BME280;20200;52.084;5.224;2022-07-30T14:01:08;101760.0;;;27.75;34.62
33913;BME280;20200;52.084;5.224;2022-07-30T14:02:55;101762.0;;;27.47;35.21
33913;BME280;20200;52.084;5.224;2022-07-30T14:04:41;101765.0;;;26.97;35.39